createdAt,value
2016-08-09T00:00:01.328Z,53.3
2016-08-09T00:00:04.305Z,53.2
2016-08-09T00:00:08.011Z,53.3
2016-08-09T00:00:11.712Z,53.1
2016-08-09T00:00:13.304Z,53.3
2016-08-09T00:00:16.280Z,53.1
2016-08-09T00:00:19.255Z,53.1
2016-08-09T00:00:22.957Z,53.2
2016-08-09T00:00:26.659Z,53.3
2016-08-09T00:00:28.906Z,53.1
2016-08-09T00:00:32.614Z,53.2
2016-08-09T00:00:35.586Z,53.2
2016-08-09T00:00:37.831Z,53.3
2016-08-09T00:00:40.803Z,53.2
2016-08-09T00:00:43.779Z,53.2
2016-08-09T00:00:46.757Z,53.2
2016-08-09T00:00:49.001Z,53.3
2016-08-09T00:00:52.705Z,53.2
2016-08-09T00:00:55.684Z,53.1
2016-08-09T00:00:59.387Z,53.1
2016-08-09T00:01:02.362Z,53.2
2016-08-09T00:01:05.337Z,53.2
2016-08-09T00:01:08.317Z,53.2
2016-08-09T00:01:11.290Z,53.3
2016-08-09T00:01:14.265Z,53.1
2016-08-09T00:01:17.247Z,53.2
2016-08-09T00:01:18.766Z,53.1
2016-08-09T00:01:22.473Z,53.2
2016-08-09T00:01:25.458Z,53
2016-08-09T00:01:28.427Z,53.2
2016-08-09T00:01:31.407Z,53.1
2016-08-09T00:01:34.377Z,53.3
2016-08-09T00:01:37.352Z,53.2
2016-08-09T00:01:39.599Z,53.1
2016-08-09T00:01:42.571Z,53.2
2016-08-09T00:01:46.274Z,53.2
2016-08-09T00:01:58.139Z,53.2
2016-08-09T00:02:01.112Z,53.2
2016-08-09T00:02:04.820Z,53.1
2016-08-09T00:02:07.794Z,53.2
2016-08-09T00:02:10.048Z,53.2
2016-08-09T00:02:12.291Z,53.3
2016-08-09T00:02:15.278Z,53.1
2016-08-09T00:02:18.980Z,53.1
2016-08-09T00:02:21.952Z,53.3
2016-08-09T00:02:24.197Z,53.1
2016-08-09T00:02:25.712Z,53.2
2016-08-09T00:02:28.135Z,53.3
2016-08-09T00:02:31.112Z,53.3
2016-08-09T00:02:34.823Z,53.2
2016-08-09T00:02:37.803Z,53.2
2016-08-09T00:02:40.047Z,53.2
2016-08-09T00:02:43.755Z,53.2
2016-08-09T00:02:46.736Z,53.3
2016-08-09T00:02:49.709Z,53.2
2016-08-09T00:02:52.685Z,53.1
2016-08-09T00:02:55.659Z,53.3
2016-08-09T00:02:59.365Z,53.3
2016-08-09T00:03:02.338Z,53.2
2016-08-09T00:03:06.045Z,53.3
2016-08-09T00:03:08.295Z,53.2
2016-08-09T00:03:10.546Z,53.1
2016-08-09T00:03:13.523Z,53.2
2016-08-09T00:03:16.501Z,53.2
2016-08-09T00:03:19.473Z,53.1
2016-08-09T00:03:22.443Z,53.2
2016-08-09T00:03:23.962Z,53.2
2016-08-09T00:03:27.665Z,53.3
2016-08-09T00:03:29.911Z,53.1
2016-08-09T00:03:32.887Z,53.2
2016-08-09T00:03:35.864Z,53.2
2016-08-09T00:03:38.839Z,53.2
2016-08-09T00:03:41.828Z,53.3
2016-08-09T00:03:43.334Z,53.2
2016-08-09T00:03:46.315Z,53.1
2016-08-09T00:03:50.016Z,53.1
2016-08-09T00:03:52.264Z,53.1
2016-08-09T00:03:55.243Z,53.2
2016-08-09T00:03:58.219Z,53.2
2016-08-09T00:04:01.197Z,53.3
2016-08-09T00:04:04.171Z,53.3
2016-08-09T00:04:07.877Z,53.3
2016-08-09T00:04:11.580Z,53.2
2016-08-09T00:04:15.282Z,53.2
2016-08-09T00:04:18.985Z,53.3
2016-08-09T00:04:21.963Z,53.2
2016-08-09T00:04:25.017Z,53.2
2016-08-09T00:04:27.262Z,53.2
2016-08-09T00:04:30.242Z,53.3
2016-08-09T00:04:33.216Z,53.2
2016-08-09T00:04:36.196Z,53.2
2016-08-09T00:04:39.897Z,53.3
2016-08-09T00:04:42.144Z,53.2
2016-08-09T00:04:45.848Z,53.2
2016-08-09T00:04:49.549Z,53.3
2016-08-09T00:04:51.796Z,53.2
2016-08-09T00:04:54.044Z,53.2
2016-08-09T00:04:56.286Z,53.2
2016-08-09T00:04:59.988Z,53.2
2016-08-09T00:05:03.698Z,53.2
2016-08-09T00:05:06.674Z,53.2
2016-08-09T00:05:08.190Z,53.3
2016-08-09T00:05:11.173Z,53.3
2016-08-09T00:05:14.145Z,53.2
2016-08-09T00:05:16.391Z,53.2
2016-08-09T00:05:18.711Z,53.2
2016-08-09T00:05:22.416Z,53.3
2016-08-09T00:05:25.394Z,53.2
2016-08-09T00:05:28.370Z,53.3
2016-08-09T00:05:32.070Z,53.2
2016-08-09T00:05:35.781Z,53.3
2016-08-09T00:05:39.479Z,53.3
2016-08-09T00:05:42.454Z,53.3
2016-08-09T00:05:45.427Z,53.2
2016-08-09T00:05:48.408Z,53.1
2016-08-09T00:05:51.390Z,53.3
2016-08-09T00:05:55.092Z,53.3
2016-08-09T00:05:58.810Z,53.3
2016-08-09T00:06:02.513Z,53.3
2016-08-09T00:06:05.491Z,53.2
2016-08-09T00:06:08.468Z,53.3
2016-08-09T00:06:10.712Z,53.3
2016-08-09T00:06:14.415Z,53.3
2016-08-09T00:06:18.117Z,53.3
2016-08-09T00:06:21.818Z,53.3
2016-08-09T00:06:24.793Z,53.2
2016-08-09T00:06:27.041Z,53.2
2016-08-09T00:06:30.743Z,53.3
2016-08-09T00:06:32.995Z,53.3
2016-08-09T00:06:35.968Z,53.3
2016-08-09T00:06:39.673Z,53.3
2016-08-09T00:06:42.650Z,53.3
2016-08-09T00:06:45.627Z,53.2
2016-08-09T00:06:48.599Z,53.2
2016-08-09T00:06:52.301Z,53.2
2016-08-09T00:06:55.272Z,53.2
2016-08-09T00:06:58.986Z,53.2
2016-08-09T00:07:01.959Z,53.3
2016-08-09T00:07:05.667Z,53.2
2016-08-09T00:07:09.374Z,53.2
2016-08-09T00:07:12.346Z,53.3
2016-08-09T00:07:13.133Z,53.2
2016-08-09T00:07:16.109Z,53.3
2016-08-09T00:07:19.813Z,53.2
2016-08-09T00:07:22.788Z,53.3
2016-08-09T00:07:24.307Z,53.2
2016-08-09T00:07:27.283Z,53.3
2016-08-09T00:07:29.529Z,53.3
2016-08-09T00:07:33.230Z,53.2
2016-08-09T00:07:36.933Z,53.2
2016-08-09T00:07:39.908Z,53.2
2016-08-09T00:07:42.881Z,53.2
2016-08-09T00:07:45.859Z,53.3
2016-08-09T00:07:49.565Z,53.2
2016-08-09T00:07:52.537Z,53.2
2016-08-09T00:07:55.515Z,53.1
2016-08-09T00:07:58.487Z,53.1
2016-08-09T00:08:01.462Z,53.2
2016-08-09T00:08:04.436Z,53.2
2016-08-09T00:08:08.138Z,53.3
2016-08-09T00:08:11.114Z,53.2
2016-08-09T00:08:13.364Z,53.2
2016-08-09T00:08:17.065Z,53.1
2016-08-09T00:08:20.047Z,53.1
2016-08-09T00:08:23.019Z,53.2
2016-08-09T00:08:26.722Z,53.2
2016-08-09T00:08:29.696Z,53.3
2016-08-09T00:08:32.671Z,53.2
2016-08-09T00:08:36.375Z,53.3
2016-08-09T00:08:39.350Z,53.2
2016-08-09T00:08:41.594Z,53.2
2016-08-09T00:08:45.298Z,53.1
2016-08-09T00:08:48.998Z,53.2
2016-08-09T00:08:52.707Z,53.1
2016-08-09T00:08:55.759Z,53.3
2016-08-09T00:08:59.466Z,53.2
2016-08-09T00:09:02.438Z,53.3
2016-08-09T00:09:05.416Z,53.2
2016-08-09T00:09:09.125Z,53.2
2016-08-09T00:09:12.821Z,53.2
2016-08-09T00:09:15.065Z,53.1
2016-08-09T00:09:18.766Z,53.1
2016-08-09T00:09:21.738Z,53.3
2016-08-09T00:09:25.441Z,53.2
2016-08-09T00:09:28.419Z,53.2
2016-08-09T00:09:30.667Z,53.1
2016-08-09T00:09:33.642Z,53.1
2016-08-09T00:09:35.891Z,53.2
2016-08-09T00:09:38.143Z,53.2
2016-08-09T00:09:39.721Z,53.1
2016-08-09T00:09:43.426Z,53.2
2016-08-09T00:09:47.132Z,53.1
2016-08-09T00:09:50.104Z,53.2
2016-08-09T00:09:52.355Z,53.2
2016-08-09T00:09:56.066Z,53.2
2016-08-09T00:09:59.775Z,53.2
2016-08-09T00:10:02.022Z,53.3
2016-08-09T00:10:05.727Z,53.2
2016-08-09T00:10:08.705Z,53.2
2016-08-09T00:10:11.688Z,53.2
2016-08-09T00:10:14.664Z,53.1
2016-08-09T00:10:18.368Z,53.2
2016-08-09T00:10:20.609Z,53.3
2016-08-09T00:10:23.586Z,53.1
2016-08-09T00:10:27.295Z,53.1
2016-08-09T00:10:30.270Z,53.3
2016-08-09T00:10:33.244Z,53.2
2016-08-09T00:10:35.490Z,53.2
2016-08-09T00:10:39.195Z,53.2
2016-08-09T00:10:42.901Z,53.2
2016-08-09T00:10:44.420Z,53.3
2016-08-09T00:10:48.127Z,53.2
2016-08-09T00:10:51.100Z,53.2
2016-08-09T00:10:54.073Z,53.3
2016-08-09T00:10:57.780Z,53.2
2016-08-09T00:11:01.486Z,53.2
2016-08-09T00:11:04.462Z,53.2
2016-08-09T00:11:06.706Z,53.2
2016-08-09T00:11:09.682Z,53.1
2016-08-09T00:11:13.384Z,53.3
2016-08-09T00:11:16.356Z,53.1
2016-08-09T00:11:20.061Z,53.2
2016-08-09T00:11:23.031Z,53.2
2016-08-09T00:11:26.732Z,53.4
2016-08-09T00:11:29.709Z,53.4
2016-08-09T00:11:31.226Z,53.3
2016-08-09T00:11:34.932Z,53.3
2016-08-09T00:11:37.901Z,53.4
2016-08-09T00:11:40.878Z,53.2
2016-08-09T00:11:43.125Z,53.3
2016-08-09T00:11:46.832Z,53.3
2016-08-09T00:11:49.815Z,53.2
2016-08-09T00:11:52.792Z,53.3
2016-08-09T00:11:55.817Z,53.2
2016-08-09T00:11:59.520Z,53.2
2016-08-09T00:12:03.226Z,53.2
2016-08-09T00:12:06.201Z,53.1
2016-08-09T00:12:09.172Z,53.3
2016-08-09T00:12:12.878Z,53.2
2016-08-09T00:12:15.930Z,53.3
2016-08-09T00:12:19.648Z,53.2
2016-08-09T00:12:21.894Z,53.2
2016-08-09T00:12:24.862Z,53.2
2016-08-09T00:12:27.842Z,53.3
2016-08-09T00:12:30.816Z,53.2
2016-08-09T00:12:33.790Z,53.3
2016-08-09T00:12:37.497Z,53.2
2016-08-09T00:12:40.475Z,53.3
2016-08-09T00:12:44.177Z,53.3
2016-08-09T00:12:47.879Z,53.2
2016-08-09T00:12:50.855Z,53.2
2016-08-09T00:12:53.103Z,53.3
2016-08-09T00:12:55.353Z,53.3
2016-08-09T00:12:59.058Z,53.2
2016-08-09T00:13:02.109Z,53.2
2016-08-09T00:13:05.094Z,53.3
2016-08-09T00:13:08.793Z,53.3
2016-08-09T00:13:11.768Z,53.4
2016-08-09T00:13:14.743Z,53.3
2016-08-09T00:13:17.717Z,53.4
2016-08-09T00:13:20.692Z,53.2
2016-08-09T00:13:24.395Z,53.2
2016-08-09T00:13:26.637Z,53.3
2016-08-09T00:13:29.607Z,53.3
2016-08-09T00:13:31.855Z,53.2
2016-08-09T00:13:34.830Z,53.2
2016-08-09T00:13:37.079Z,53.3
2016-08-09T00:13:40.790Z,53.3
2016-08-09T00:13:44.493Z,53.4
2016-08-09T00:13:48.195Z,53.3
2016-08-09T00:13:51.899Z,53.2
2016-08-09T00:13:54.873Z,53.3
2016-08-09T00:13:58.583Z,53.4
2016-08-09T00:14:00.823Z,53.2
2016-08-09T00:14:03.080Z,53.3
2016-08-09T00:14:06.045Z,53.4
2016-08-09T00:14:09.021Z,53.3
2016-08-09T00:14:12.722Z,53.3
2016-08-09T00:14:16.429Z,53.4
2016-08-09T00:14:20.133Z,53.3
2016-08-09T00:14:23.835Z,53.3
2016-08-09T00:14:26.817Z,53.3
2016-08-09T00:14:29.062Z,53.3
2016-08-09T00:14:32.042Z,53.3
2016-08-09T00:14:35.023Z,53.2
2016-08-09T00:14:38.006Z,53.3
2016-08-09T00:14:41.703Z,53.3
2016-08-09T00:14:44.695Z,53.3
2016-08-09T00:14:48.399Z,53.3
2016-08-09T00:14:51.368Z,53.3
2016-08-09T00:14:53.616Z,53.3
2016-08-09T00:14:56.587Z,53.3
2016-08-09T00:14:59.563Z,53.3
2016-08-09T00:15:01.812Z,53.3
2016-08-09T00:15:05.510Z,53.3
2016-08-09T00:15:08.484Z,53.3
2016-08-09T00:15:11.457Z,53.3
2016-08-09T00:15:15.159Z,53.3
2016-08-09T00:15:18.862Z,53.2
2016-08-09T00:15:22.568Z,53.2
2016-08-09T00:15:25.536Z,53.4
2016-08-09T00:15:28.516Z,53.5
2016-08-09T00:15:32.221Z,53.2
2016-08-09T00:15:35.922Z,53.5
2016-08-09T00:15:38.901Z,53.4
2016-08-09T00:15:41.875Z,53.4
2016-08-09T00:15:44.856Z,53.2
2016-08-09T00:15:47.830Z,53.2
2016-08-09T00:15:50.805Z,53.3
2016-08-09T00:15:53.052Z,53.4
2016-08-09T00:15:56.105Z,53.3
2016-08-09T00:15:58.346Z,53.6
2016-08-09T00:16:01.320Z,53.4
2016-08-09T00:16:04.295Z,53.3
2016-08-09T00:16:07.996Z,53.2
2016-08-09T00:16:11.697Z,53.3
2016-08-09T00:16:13.941Z,53.3
2016-08-09T00:16:16.916Z,53.3
2016-08-09T00:16:19.896Z,53.4
2016-08-09T00:16:23.600Z,53.2
2016-08-09T00:16:27.302Z,53.5
2016-08-09T00:16:30.279Z,53.4
2016-08-09T00:16:33.259Z,53.2
2016-08-09T00:16:36.237Z,53.3
2016-08-09T00:16:39.938Z,53.3
2016-08-09T00:16:43.642Z,53.4
2016-08-09T00:16:46.618Z,53.2
2016-08-09T00:16:59.706Z,53.4
2016-08-09T00:17:02.680Z,53.5
2016-08-09T00:17:05.653Z,53.5
2016-08-09T00:17:07.898Z,53.6
2016-08-09T00:17:10.872Z,53.2
2016-08-09T00:17:13.850Z,53.6
2016-08-09T00:17:17.555Z,53.4
2016-08-09T00:17:21.258Z,53.3
2016-08-09T00:17:24.960Z,53.2
2016-08-09T00:17:27.933Z,53.5
2016-08-09T00:17:30.909Z,53.5
2016-08-09T00:17:34.611Z,53.4
2016-08-09T00:17:38.315Z,53.3
2016-08-09T00:17:40.564Z,53.6
2016-08-09T00:17:42.816Z,53.2
2016-08-09T00:17:46.524Z,53.5
2016-08-09T00:17:49.496Z,53.5
2016-08-09T00:17:52.470Z,53.4
2016-08-09T00:17:56.172Z,53.5
2016-08-09T00:17:59.879Z,53.3
2016-08-09T00:18:02.854Z,53.3
2016-08-09T00:18:06.558Z,53.3
2016-08-09T00:18:10.264Z,53.4
2016-08-09T00:18:13.972Z,53.3
2016-08-09T00:18:16.944Z,53.2
2016-08-09T00:18:20.650Z,53.3
2016-08-09T00:18:24.359Z,53.3
2016-08-09T00:18:27.340Z,53.4
2016-08-09T00:18:30.311Z,53.3
2016-08-09T00:18:32.558Z,53.4
2016-08-09T00:18:34.808Z,53.2
2016-08-09T00:18:37.052Z,53.2
2016-08-09T00:18:40.025Z,53.6
2016-08-09T00:18:42.274Z,53.2
2016-08-09T00:18:45.249Z,53.2
2016-08-09T00:18:47.494Z,53.5
2016-08-09T00:18:50.471Z,53.2
2016-08-09T00:18:53.444Z,53.3
2016-08-09T00:18:57.149Z,53.3
2016-08-09T00:19:00.126Z,53.3
2016-08-09T00:19:03.097Z,53.3
2016-08-09T00:19:05.343Z,53.4
2016-08-09T00:19:07.590Z,53.2
2016-08-09T00:19:10.561Z,53.5
2016-08-09T00:19:13.537Z,53.3
2016-08-09T00:19:16.512Z,53.2
2016-08-09T00:19:19.491Z,53.3
2016-08-09T00:19:22.469Z,53.3
2016-08-09T00:19:25.442Z,53.3
2016-08-09T00:19:29.146Z,53.3
2016-08-09T00:19:30.666Z,53.3
2016-08-09T00:19:32.913Z,53.3
2016-08-09T00:19:35.159Z,53.3
2016-08-09T00:19:38.134Z,53.4
2016-08-09T00:19:50.948Z,53.3
2016-08-09T00:19:54.651Z,53.3
2016-08-09T00:19:56.897Z,53.2
2016-08-09T00:19:59.868Z,53.3
2016-08-09T00:20:03.580Z,53.2
2016-08-09T00:20:05.823Z,53.3
2016-08-09T00:20:08.071Z,53.3
2016-08-09T00:20:11.774Z,53.2
2016-08-09T00:20:14.754Z,53.2
2016-08-09T00:20:17.726Z,53.3
2016-08-09T00:20:19.971Z,53.3
2016-08-09T00:20:23.674Z,53.3
2016-08-09T00:20:26.648Z,53.3
2016-08-09T00:20:30.352Z,53.3
2016-08-09T00:20:33.330Z,53.2
2016-08-09T00:20:37.032Z,53.3
2016-08-09T00:20:40.737Z,53.2
2016-08-09T00:20:43.709Z,53.3
2016-08-09T00:20:47.417Z,53.3
2016-08-09T00:20:51.120Z,53.3
2016-08-09T00:20:54.826Z,53.3
2016-08-09T00:20:57.075Z,53.3
2016-08-09T00:21:00.045Z,53.5
2016-08-09T00:21:03.753Z,53.6
2016-08-09T00:21:06.725Z,53.2
2016-08-09T00:21:09.703Z,53.4
2016-08-09T00:21:12.679Z,53.6
2016-08-09T00:21:15.652Z,53.3
2016-08-09T00:21:19.358Z,53.2
2016-08-09T00:21:23.063Z,53.3
2016-08-09T00:21:26.766Z,53.4
2016-08-09T00:21:30.468Z,53.3
2016-08-09T00:21:33.443Z,53.5
2016-08-09T00:21:35.687Z,53.3
2016-08-09T00:21:39.393Z,53.5
2016-08-09T00:21:42.365Z,53.4
2016-08-09T00:21:46.070Z,53.6
2016-08-09T00:21:49.772Z,53.5
2016-08-09T00:21:53.478Z,53.6
2016-08-09T00:21:57.183Z,53.6
2016-08-09T00:21:59.427Z,53.7
2016-08-09T00:22:03.129Z,53.4
2016-08-09T00:22:06.129Z,53.6
2016-08-09T00:22:09.098Z,53.4
2016-08-09T00:22:12.073Z,53.6
2016-08-09T00:22:15.047Z,53.7
2016-08-09T00:22:18.757Z,53.5
2016-08-09T00:22:21.006Z,53.3
2016-08-09T00:22:23.978Z,53.3
2016-08-09T00:22:27.681Z,53.6
2016-08-09T00:22:29.927Z,53.6
2016-08-09T00:22:32.182Z,53.6
2016-08-09T00:22:35.154Z,53.6
2016-08-09T00:22:38.863Z,53.3
2016-08-09T00:22:41.837Z,53.5
2016-08-09T00:22:44.814Z,53.3
2016-08-09T00:22:47.788Z,53.4
2016-08-09T00:22:49.308Z,53.2
2016-08-09T00:22:53.017Z,53.4
2016-08-09T00:22:55.992Z,53.4
2016-08-09T00:22:59.691Z,53.6
2016-08-09T00:23:01.936Z,53.3
2016-08-09T00:23:05.639Z,53.3
2016-08-09T00:23:08.611Z,53.4
2016-08-09T00:23:12.315Z,53.4
2016-08-09T00:23:15.290Z,53.5
2016-08-09T00:23:19.000Z,53.4
2016-08-09T00:23:21.240Z,53.2
2016-08-09T00:23:24.214Z,53.2
2016-08-09T00:23:27.191Z,53.2
2016-08-09T00:23:29.433Z,53.3
2016-08-09T00:23:31.680Z,53.2
2016-08-09T00:23:35.385Z,53.3
2016-08-09T00:23:38.358Z,53.2
2016-08-09T00:23:42.061Z,53.3
2016-08-09T00:23:44.302Z,53.4
2016-08-09T00:23:47.277Z,53.3
2016-08-09T00:23:50.247Z,53.2
2016-08-09T00:23:51.762Z,53.3
2016-08-09T00:23:54.737Z,53.3
2016-08-09T00:23:57.713Z,53.2
2016-08-09T00:24:00.689Z,53.3
2016-08-09T00:24:04.391Z,53.3
2016-08-09T00:24:06.636Z,53.3
2016-08-09T00:24:08.883Z,53.3
2016-08-09T00:24:12.586Z,53.2
2016-08-09T00:24:16.291Z,53.3
2016-08-09T00:24:19.996Z,53.3
2016-08-09T00:24:22.968Z,53.3
2016-08-09T00:24:26.673Z,53.3
2016-08-09T00:24:30.375Z,53.4
2016-08-09T00:24:33.354Z,53.2
2016-08-09T00:24:35.597Z,53.2
2016-08-09T00:24:38.570Z,53.4
2016-08-09T00:24:40.816Z,53.2
2016-08-09T00:24:43.799Z,53.3
2016-08-09T00:24:46.037Z,53.3
2016-08-09T00:24:49.742Z,53.4
2016-08-09T00:24:52.713Z,53.3
2016-08-09T00:24:56.424Z,53.2
2016-08-09T00:24:58.670Z,53.2
2016-08-09T00:25:00.912Z,53.4
2016-08-09T00:25:04.619Z,53.3
2016-08-09T00:25:08.317Z,53.2
2016-08-09T00:25:11.292Z,53.6
2016-08-09T00:25:14.996Z,53.2
2016-08-09T00:25:18.700Z,53.2
2016-08-09T00:25:20.945Z,53.3
2016-08-09T00:25:24.652Z,53.3
2016-08-09T00:25:28.360Z,53.2
2016-08-09T00:25:31.330Z,53.4
2016-08-09T00:25:35.033Z,53.2
2016-08-09T00:25:38.736Z,53.2
2016-08-09T00:25:41.717Z,53.2
2016-08-09T00:25:45.422Z,53.3
2016-08-09T00:25:49.127Z,53.2
2016-08-09T00:25:52.101Z,53.2
2016-08-09T00:25:55.804Z,53.3
2016-08-09T00:25:58.779Z,53.2
2016-08-09T00:26:02.481Z,53.4
2016-08-09T00:26:06.190Z,53.2
2016-08-09T00:26:09.163Z,53.2
2016-08-09T00:26:12.864Z,53.2
2016-08-09T00:26:15.840Z,53.2
2016-08-09T00:26:18.083Z,53.2
2016-08-09T00:26:21.061Z,53.6
2016-08-09T00:26:24.036Z,53.4
2016-08-09T00:26:26.282Z,53.2
2016-08-09T00:26:29.981Z,53.2
2016-08-09T00:26:33.684Z,53.2
2016-08-09T00:26:37.388Z,53.2
2016-08-09T00:26:39.632Z,53.2
2016-08-09T00:26:42.609Z,53.4
2016-08-09T00:26:46.313Z,53.6
2016-08-09T00:26:49.286Z,53.3
2016-08-09T00:26:52.263Z,53.5
2016-08-09T00:26:55.239Z,53.3
2016-08-09T00:26:58.945Z,53.4
2016-08-09T00:27:02.648Z,53.6
2016-08-09T00:27:04.165Z,53.4
2016-08-09T00:27:07.146Z,53.7
2016-08-09T00:27:09.394Z,53.2
2016-08-09T00:27:12.370Z,53.4
2016-08-09T00:27:16.072Z,53.7
2016-08-09T00:27:18.319Z,53.5
2016-08-09T00:27:21.300Z,53.6
2016-08-09T00:27:24.999Z,53.5
2016-08-09T00:27:28.701Z,53.5
2016-08-09T00:27:32.406Z,53.6
2016-08-09T00:27:34.654Z,53.5
2016-08-09T00:27:38.353Z,53.5
2016-08-09T00:27:41.330Z,53.7
2016-08-09T00:27:45.031Z,53.5
2016-08-09T00:27:48.005Z,53.6
2016-08-09T00:27:51.710Z,53.6
2016-08-09T00:27:55.413Z,53.6
2016-08-09T00:27:57.658Z,53.5
2016-08-09T00:27:59.905Z,53.2
2016-08-09T00:28:02.877Z,53.6
2016-08-09T00:28:05.859Z,53.5
2016-08-09T00:28:09.567Z,53.3
2016-08-09T00:28:11.814Z,53.2
2016-08-09T00:28:14.059Z,53.2
2016-08-09T00:28:16.304Z,53.2
2016-08-09T00:28:20.009Z,53.2
2016-08-09T00:28:22.985Z,53.3
2016-08-09T00:28:26.685Z,53.2
2016-08-09T00:28:29.661Z,53.2
2016-08-09T00:28:33.364Z,53.3
2016-08-09T00:28:37.072Z,53.3
2016-08-09T00:28:40.054Z,53.3
2016-08-09T00:28:43.032Z,53.3
2016-08-09T00:28:44.556Z,53.2
2016-08-09T00:28:47.531Z,53.7
2016-08-09T00:28:50.505Z,53.3
2016-08-09T00:28:53.481Z,53.6
2016-08-09T00:28:55.727Z,53.4
2016-08-09T00:28:59.433Z,53.2
2016-08-09T00:29:01.679Z,53.3
2016-08-09T00:29:05.381Z,53.6
2016-08-09T00:29:09.086Z,53.3
2016-08-09T00:29:12.063Z,53.2
2016-08-09T00:29:15.037Z,53.3
2016-08-09T00:29:18.012Z,53.3
2016-08-09T00:29:21.713Z,53.6
2016-08-09T00:29:24.686Z,53.3
2016-08-09T00:29:26.931Z,53.3
2016-08-09T00:29:29.908Z,53.7
2016-08-09T00:29:33.615Z,53.3
2016-08-09T00:29:37.322Z,53.7
2016-08-09T00:29:41.023Z,53.2
2016-08-09T00:29:44.730Z,53.3
2016-08-09T00:29:48.434Z,53.2
2016-08-09T00:29:50.679Z,53.3
2016-08-09T00:29:54.434Z,53.3
2016-08-09T00:29:57.410Z,53.7
2016-08-09T00:30:01.115Z,53.3
2016-08-09T00:30:04.089Z,53.4
2016-08-09T00:30:07.063Z,53.6
2016-08-09T00:30:10.770Z,53.4
2016-08-09T00:30:12.285Z,53.4
2016-08-09T00:30:15.989Z,53.7
2016-08-09T00:30:18.235Z,53.4
2016-08-09T00:30:21.939Z,53.4
2016-08-09T00:30:25.643Z,53.7
2016-08-09T00:30:27.896Z,53.7
2016-08-09T00:30:30.142Z,53.8
2016-08-09T00:30:32.390Z,53.7
2016-08-09T00:30:35.367Z,53.4
2016-08-09T00:30:38.344Z,53.7
2016-08-09T00:30:42.049Z,53.7
2016-08-09T00:30:45.029Z,53.4
2016-08-09T00:30:48.004Z,53.7
2016-08-09T00:30:50.252Z,53.7
2016-08-09T00:30:53.229Z,53.7
2016-08-09T00:30:56.937Z,53.7
2016-08-09T00:30:59.909Z,53.7
2016-08-09T00:31:02.156Z,53.7
2016-08-09T00:31:05.128Z,53.7
2016-08-09T00:31:07.379Z,53.7
2016-08-09T00:31:10.353Z,53.7
2016-08-09T00:31:13.326Z,53.4
2016-08-09T00:31:16.308Z,53.7
2016-08-09T00:31:19.287Z,53.7
2016-08-09T00:31:22.260Z,53.7
2016-08-09T00:31:25.971Z,53.4
2016-08-09T00:31:28.942Z,53.7
2016-08-09T00:31:31.915Z,53.4
2016-08-09T00:31:34.161Z,53.4
2016-08-09T00:31:35.676Z,53.4
2016-08-09T00:31:39.380Z,53.7
2016-08-09T00:31:42.352Z,53.4
2016-08-09T00:31:45.328Z,53.7
2016-08-09T00:31:47.581Z,53.5
2016-08-09T00:31:51.287Z,53.5
2016-08-09T00:31:53.535Z,53.4
2016-08-09T00:32:04.938Z,53.5
2016-08-09T00:32:07.184Z,53.6
2016-08-09T00:32:10.163Z,53.4
2016-08-09T00:32:13.879Z,53.5
2016-08-09T00:32:17.585Z,53.4
2016-08-09T00:32:19.832Z,53.5
2016-08-09T00:32:23.536Z,53.6
2016-08-09T00:32:27.237Z,53.7
2016-08-09T00:32:29.484Z,53.5
2016-08-09T00:32:33.190Z,53.6
2016-08-09T00:32:36.892Z,53.5
2016-08-09T00:32:40.594Z,53.6
2016-08-09T00:32:42.840Z,53.6
2016-08-09T00:32:46.559Z,53.6
2016-08-09T00:32:48.077Z,53.5
2016-08-09T00:32:51.785Z,53.5
2016-08-09T00:32:55.489Z,53.6
2016-08-09T00:32:58.463Z,53.6
2016-08-09T00:33:02.163Z,53.6
2016-08-09T00:33:04.406Z,53.6
2016-08-09T00:33:07.382Z,53.5
2016-08-09T00:33:10.357Z,53.6
2016-08-09T00:33:14.064Z,53.6
2016-08-09T00:33:16.308Z,53.5
2016-08-09T00:33:20.011Z,53.6
2016-08-09T00:33:22.254Z,53.5
2016-08-09T00:33:25.229Z,53.6
2016-08-09T00:33:28.935Z,53.5
2016-08-09T00:33:31.175Z,53.6
2016-08-09T00:33:33.423Z,53.5
2016-08-09T00:33:37.131Z,53.6
2016-08-09T00:33:40.834Z,53.5
2016-08-09T00:33:43.077Z,53.6
2016-08-09T00:33:46.061Z,53.6
2016-08-09T00:33:49.035Z,53.6
2016-08-09T00:33:52.006Z,53.5
2016-08-09T00:33:54.980Z,53.6
2016-08-09T00:33:57.962Z,53.5
2016-08-09T00:34:00.939Z,53.6
2016-08-09T00:34:03.914Z,53.6
2016-08-09T00:34:06.887Z,53.6
2016-08-09T00:34:09.863Z,53.6
2016-08-09T00:34:12.836Z,53.6
2016-08-09T00:34:15.085Z,53.6
2016-08-09T00:34:18.791Z,53.6
2016-08-09T00:34:21.766Z,53.5
2016-08-09T00:34:24.744Z,53.5
2016-08-09T00:34:26.260Z,53.4
2016-08-09T00:34:29.235Z,53.6
2016-08-09T00:34:32.936Z,53.6
2016-08-09T00:34:36.644Z,53.6
2016-08-09T00:34:38.162Z,53.4
2016-08-09T00:34:41.137Z,53.7
2016-08-09T00:34:44.840Z,53.4
2016-08-09T00:34:48.542Z,53.7
2016-08-09T00:34:50.855Z,53.6
2016-08-09T00:34:54.561Z,53.7
2016-08-09T00:34:57.536Z,53.4
2016-08-09T00:35:00.508Z,53.7
2016-08-09T00:35:02.027Z,53.6
2016-08-09T00:35:05.730Z,53.8
2016-08-09T00:35:08.705Z,53.4
2016-08-09T00:35:11.681Z,53.7
2016-08-09T00:35:13.927Z,53.7
2016-08-09T00:35:17.635Z,53.7
2016-08-09T00:35:21.335Z,53.7
2016-08-09T00:35:22.852Z,53.6
2016-08-09T00:35:25.100Z,53.7
2016-08-09T00:35:28.073Z,53.6
2016-08-09T00:35:31.047Z,53.4
2016-08-09T00:35:33.295Z,53.6
2016-08-09T00:35:36.274Z,53.7
2016-08-09T00:35:39.972Z,53.4
2016-08-09T00:35:42.949Z,53.6
2016-08-09T00:35:45.924Z,53.3
2016-08-09T00:35:48.899Z,53.7
2016-08-09T00:35:51.143Z,53.4
2016-08-09T00:35:54.118Z,53.6
2016-08-09T00:35:57.822Z,53.4
2016-08-09T00:36:00.797Z,53.4
2016-08-09T00:36:03.771Z,53.7
2016-08-09T00:36:06.744Z,53.7
2016-08-09T00:36:10.446Z,53.4
2016-08-09T00:36:13.423Z,53.6
2016-08-09T00:36:15.669Z,53.3
2016-08-09T00:36:18.644Z,53.6
2016-08-09T00:36:20.890Z,53.4
2016-08-09T00:36:24.595Z,53.7
2016-08-09T00:36:27.570Z,53.7
2016-08-09T00:36:31.277Z,53.6
2016-08-09T00:36:34.252Z,53.6
2016-08-09T00:36:37.952Z,53.5
2016-08-09T00:36:40.928Z,53.6
2016-08-09T00:36:44.631Z,53.4
2016-08-09T00:36:47.610Z,53.5
2016-08-09T00:36:50.583Z,53.7
2016-08-09T00:36:53.556Z,53.6
2016-08-09T00:36:56.537Z,53.8
2016-08-09T00:37:00.248Z,53.7
2016-08-09T00:37:03.217Z,53.4
2016-08-09T00:37:06.921Z,53.5
2016-08-09T00:37:09.895Z,53.7
2016-08-09T00:37:12.138Z,53.4
2016-08-09T00:37:14.391Z,53.6
2016-08-09T00:37:17.355Z,53.7
2016-08-09T00:37:19.603Z,53.7
2016-08-09T00:37:22.580Z,53.6
2016-08-09T00:37:26.283Z,53.7
2016-08-09T00:37:29.988Z,53.4
2016-08-09T00:37:33.691Z,53.5
2016-08-09T00:37:35.210Z,53.7
2016-08-09T00:37:38.917Z,53.7
2016-08-09T00:37:41.890Z,53.7
2016-08-09T00:37:44.869Z,53.4
2016-08-09T00:37:48.568Z,53.4
2016-08-09T00:37:52.272Z,53.7
2016-08-09T00:37:55.976Z,53.7
2016-08-09T00:37:58.958Z,53.6
2016-08-09T00:38:01.933Z,53.7
2016-08-09T00:38:05.637Z,53.5
2016-08-09T00:38:08.612Z,53.7
2016-08-09T00:38:10.855Z,53.4
2016-08-09T00:38:13.833Z,53.7
2016-08-09T00:38:16.814Z,53.6
2016-08-09T00:38:20.519Z,53.7
2016-08-09T00:38:24.227Z,53.6
2016-08-09T00:38:27.926Z,53.4
2016-08-09T00:38:30.176Z,53.7
2016-08-09T00:38:33.150Z,53.6
2016-08-09T00:38:36.127Z,53.4
2016-08-09T00:38:39.101Z,53.7
2016-08-09T00:38:41.350Z,53.6
2016-08-09T00:38:44.322Z,53.6
2016-08-09T00:38:48.029Z,53.7
2016-08-09T00:38:51.740Z,53.7
2016-08-09T00:38:55.440Z,53.7
2016-08-09T00:38:58.419Z,53.6
2016-08-09T00:39:02.120Z,53.7
2016-08-09T00:39:04.365Z,53.8
2016-08-09T00:39:07.345Z,53.7
2016-08-09T00:39:10.321Z,53.6
2016-08-09T00:39:13.294Z,53.7
2016-08-09T00:39:17.000Z,53.6
2016-08-09T00:39:19.973Z,53.5
2016-08-09T00:39:22.949Z,53.6
2016-08-09T00:39:26.654Z,53.7
2016-08-09T00:39:29.629Z,53.6
2016-08-09T00:39:31.876Z,53.6
2016-08-09T00:39:34.121Z,53.6
2016-08-09T00:39:37.830Z,53.7
2016-08-09T00:39:40.795Z,53.7
2016-08-09T00:39:43.773Z,53.7
2016-08-09T00:39:46.747Z,53.7
2016-08-09T00:39:49.721Z,53.5
2016-08-09T00:39:51.966Z,53.7
2016-08-09T00:39:54.990Z,53.8
2016-08-09T00:39:58.692Z,53.7
2016-08-09T00:40:01.666Z,53.6
2016-08-09T00:40:04.653Z,53.4
2016-08-09T00:40:06.888Z,53.6
2016-08-09T00:40:09.136Z,53.7
2016-08-09T00:40:11.381Z,53.7
2016-08-09T00:40:14.358Z,53.7
2016-08-09T00:40:16.603Z,53.7
2016-08-09T00:40:20.305Z,53.8
2016-08-09T00:40:23.278Z,53.3
2016-08-09T00:40:26.982Z,53.6
2016-08-09T00:40:30.690Z,53.7
2016-08-09T00:40:33.662Z,53.7
2016-08-09T00:40:35.911Z,53.4
2016-08-09T00:40:37.423Z,53.7
2016-08-09T00:40:41.129Z,53.7
2016-08-09T00:40:44.105Z,53.4
2016-08-09T00:40:47.090Z,53.7
2016-08-09T00:40:50.798Z,53.6
2016-08-09T00:40:53.043Z,53.7
2016-08-09T00:40:56.021Z,53.7
2016-08-09T00:40:58.998Z,53.6
2016-08-09T00:41:02.707Z,53.7
2016-08-09T00:41:05.686Z,53.4
2016-08-09T00:41:08.662Z,53.6
2016-08-09T00:41:10.907Z,53.4